Time;durP1;ratioP1;P1;durP2;ratioP2;P2;SDS_P1;SDS_P2;PMS_P1;PMS_P2;Temp;Humidity;BMP_temperature;BMP_pressure;BME280_temperature;BME280_humidity;BME280_pressure;Samples;Min_cycle;Max_cycle;Signal;HPM_P1;HPM_P2
2022/06/07 12:14:32;;;;;;;3.47;1.63;;;;;;;25.54;35.24;99163.97;4938458;29;20060;-91
2022/06/07 12:17:03;;;;;;;16.85;9.88;;;;;;;25.66;35.63;99140.88;4944239;29;20035;-93
2022/06/07 12:19:32;;;;;;;10.68;7.45;;;;;;;25.71;34.92;99139.75;4922704;29;20056;-94
2022/06/07 12:22:01;;;;;;;8.38;3.95;;;;;;;26.04;35.37;99160.25;4940532;29;20059;-94
2022/06/07 12:24:57;;;;;;;4.30;2.10;;;;;;;26.01;34.90;99142.50;4941824;29;20042;-96
2022/06/07 12:27:35;;;;;;;3.63;2.15;;;;;;;26.06;34.43;99144.09;4918027;29;20039;-93
2022/06/07 12:33:36;;;;;;;11.82;6.35;;;;;;;25.86;33.82;99137.94;4927871;29;20038;-96
2022/06/07 12:39:29;;;;;;;12.88;8.45;;;;;;;25.73;34.05;99120.84;4941682;29;20095;-95
2022/06/07 12:50:17;;;;;;;3.67;1.83;;;;;;;25.96;34.15;99143.63;4976550;28;20050;-92
2022/06/07 12:53:06;;;;;;;3.15;1.77;;;;;;;26.44;33.36;99142.91;4987757;28;20309;-95
2022/06/07 12:56:28;;;;;;;4.05;1.70;;;;;;;26.54;32.65;99136.69;4991638;28;20038;-93
2022/06/07 13:02:39;;;;;;;7.53;2.10;;;;;;;26.75;31.84;99129.75;4940804;29;20107;-94
2022/06/07 13:05:10;;;;;;;4.68;1.70;;;;;;;27.05;30.53;99106.69;4915650;29;20035;-94
2022/06/07 13:07:47;;;;;;;3.05;2.10;;;;;;;27.04;31.94;99125.22;4979276;28;20115;-94
2022/06/07 13:10:17;;;;;;;3.05;1.70;;;;;;;26.84;32.01;99099.06;4976414;28;20023;-93
2022/06/07 13:12:46;;;;;;;4.00;2.05;;;;;;;26.72;32.37;99095.41;4965969;28;20031;-94
2022/06/07 13:15:20;;;;;;;5.20;1.63;;;;;;;26.56;33.12;99119.72;4959681;28;20053;-93
2022/06/07 13:18:25;;;;;;;;;;;;;;;;;;;;;
2022/06/07 13:21:05;;;;;;;2.30;1.58;;;;;;;26.35;32.33;99125.84;4957979;29;20519;-93
2022/06/07 13:23:44;;;;;;;3.13;2.58;;;;;;;26.15;32.02;99114.25;4941265;29;20059;-94
2022/06/07 13:27:03;;;;;;;;;;;;;;;;;;;;;
2022/06/07 13:29:53;;;;;;;5.85;2.08;;;;;;;25.77;32.85;99102.38;4961740;28;20106;-95
2022/06/07 13:32:26;;;;;;;2.40;1.33;;;;;;;25.66;32.51;99094.00;4958870;28;20043;-91
2022/06/07 13:35:01;;;;;;;3.13;1.60;;;;;;;25.72;33.30;99099.97;4943525;28;20186;-95
2022/06/07 13:37:33;;;;;;;4.35;2.20;;;;;;;25.61;33.86;99092.38;4943810;29;20115;-95
2022/06/07 13:40:05;;;;;;;4.72;1.85;;;;;;;25.75;34.25;99107.50;4944187;29;20031;-95
2022/06/07 13:43:39;;;;;;;7.82;4.68;;;;;;;25.46;34.58;99084.31;4965228;29;20035;-96
2022/06/07 13:46:32;;;;;;;4.13;1.77;;;;;;;25.53;34.46;99085.19;4941461;29;20453;-95
2022/06/07 13:55:57;;;;;;;2.90;1.52;;;;;;;25.69;34.79;99109.81;5057087;23;19933;-95
2022/06/07 13:58:52;;;;;;;;;;;;;;;;;;;;;
2022/06/07 14:01:53;;;;;;;3.03;1.95;;;;;;;25.47;34.74;99077.63;5001514;28;20106;-96
2022/06/07 14:04:53;;;;;;;4.28;1.77;;;;;;;25.73;34.85;99088.59;4946716;28;20411;-95
2022/06/07 14:07:36;;;;;;;2.60;1.70;;;;;;;25.67;35.06;99072.72;4959911;28;20455;-96
2022/06/07 14:10:08;;;;;;;3.90;1.67;;;;;;;25.63;34.89;99077.41;4969941;28;20475;-95
2022/06/07 14:12:33;;;;;;;;;;;;;;;25.79;34.55;99095.34;4968367;28;20038;-94
2022/06/07 14:15:15;;;;;;;7.35;2.88;;;;;;;25.74;34.82;99078.34;4980193;28;19933;-94
2022/06/07 14:17:48;;;;;;;;;;;;;;;25.92;35.28;99087.63;4966125;28;20031;-92
2022/06/07 14:20:24;;;;;;;8.93;6.20;;;;;;;25.84;35.22;99063.03;4980707;28;20343;-93
2022/06/07 14:22:50;;;;;;;4.68;2.10;;;;;;;25.88;34.27;99059.19;4967672;28;20048;-93
2022/06/07 14:25:36;;;;;;;4.95;1.70;;;;;;;25.91;34.45;99065.94;4965613;28;20026;-95
2022/06/07 14:28:02;;;;;;;3.85;1.70;;;;;;;25.89;33.58;99079.28;4983504;28;20041;-93
2022/06/07 14:30:35;;;;;;;12.15;2.60;;;;;;;25.75;34.63;99055.91;4964202;28;20403;-93
2022/06/07 14:33:03;;;;;;;5.47;1.95;;;;;;;25.73;34.73;99074.78;4965515;28;20118;-93
2022/06/07 14:35:30;;;;;;;9.35;2.47;;;;;;;25.68;34.78;99080.63;4966440;28;20026;-94
2022/06/07 14:37:58;;;;;;;7.97;1.83;;;;;;;25.63;35.00;99086.50;4965196;28;20459;-94
2022/06/07 14:40:31;;;;;;;5.40;2.00;;;;;;;25.57;35.44;99088.78;4965045;28;20027;-94
2022/06/07 14:42:57;;;;;;;3.70;2.17;;;;;;;25.30;36.14;99079.03;4964454;28;20031;-93
2022/06/07 14:45:25;;;;;;;5.97;2.10;;;;;;;25.18;36.38;99063.47;4964699;28;20077;-95
2022/06/07 14:47:56;;;;;;;8.45;2.60;;;;;;;25.01;36.69;99062.88;4964183;28;20034;-90
2022/06/07 14:50:22;;;;;;;9.52;2.90;;;;;;;25.21;36.49;99084.78;4963334;28;20423;-91
2022/06/07 14:52:48;;;;;;;4.45;2.00;;;;;;;25.11;36.35;99072.44;4965841;28;20030;-93
2022/06/07 14:55:19;;;;;;;6.65;3.53;;;;;;;25.00;37.17;99069.53;4981621;28;20577;-91
2022/06/07 14:57:47;;;;;;;5.47;2.60;;;;;;;24.93;37.33;99074.16;4980512;28;20026;-95
2022/06/07 15:00:14;;;;;;;4.10;2.03;;;;;;;25.02;37.39;99086.47;4980838;28;20034;-94
2022/06/07 15:02:42;;;;;;;13.32;2.70;;;;;;;24.98;37.29;99066.34;4965260;28;20031;-92
2022/06/07 15:05:19;;;;;;;5.60;2.78;;;;;;;25.11;37.18;99072.44;4981557;28;20026;-92
2022/06/07 15:07:53;;;;;;;7.60;3.97;;;;;;;25.02;37.36;99066.41;4960493;28;20049;-93
2022/06/07 15:10:21;;;;;;;6.72;2.33;;;;;;;25.09;37.44;99066.53;4960780;28;20035;-93
2022/06/07 15:12:50;;;;;;;6.05;2.15;;;;;;;25.09;37.75;99062.94;4961501;28;20030;-93
2022/06/07 15:15:20;;;;;;;3.83;1.83;;;;;;;25.13;37.53;99070.13;4961634;28;20047;-94
2022/06/07 15:17:52;;;;;;;4.03;2.40;;;;;;;25.17;37.02;99059.94;4976510;28;20033;-92
2022/06/07 15:20:35;;;;;;;9.00;2.33;;;;;;;25.28;36.54;99070.34;4960712;28;20496;-92
2022/06/07 15:23:02;;;;;;;5.53;2.63;;;;;;;25.28;37.30;99062.06;4958944;28;20058;-92
2022/06/07 15:25:29;;;;;;;25.20;3.22;;;;;;;25.29;37.53;99069.94;4958623;28;20027;-91
2022/06/07 15:27:55;;;;;;;5.63;2.50;;;;;;;25.31;37.21;99050.28;4958392;28;20489;-93
2022/06/07 15:30:20;;;;;;;8.20;2.00;;;;;;;25.26;37.04;99056.13;4959635;28;20034;-93
2022/06/07 15:32:46;;;;;;;6.95;1.90;;;;;;;25.33;36.90;99056.22;4958842;28;20113;-93
2022/06/07 15:35:15;;;;;;;5.13;2.00;;;;;;;25.01;36.56;99042.78;4958685;28;20516;-92
2022/06/07 15:37:44;;;;;;;3.50;1.80;;;;;;;25.19;36.64;99059.53;4974455;28;20027;-92
2022/06/07 15:40:10;;;;;;;6.60;2.22;;;;;;;25.02;36.92;99047.13;4959330;28;20023;-93
2022/06/07 15:42:51;;;;;;;5.28;2.30;;;;;;;24.94;37.57;99045.44;4942881;28;20030;-93
2022/06/07 15:45:26;;;;;;;6.57;1.95;;;;;;;25.14;37.03;99066.19;4946369;28;20039;-94
2022/06/07 15:48:22;;;;;;;6.88;2.33;;;;;;;25.14;36.90;99046.88;4959018;28;20034;-94
2022/06/07 15:50:55;;;;;;;4.43;2.00;;;;;;;25.26;36.59;99064.41;4958987;28;20038;-93
2022/06/07 15:53:26;;;;;;;3.92;2.30;;;;;;;25.00;36.90;99030.97;4942412;28;20065;-93
2022/06/07 15:55:51;;;;;;;4.25;2.33;;;;;;;24.93;37.13;99044.66;4943544;28;20081;-93
2022/06/07 16:01:03;;;;;;;6.53;3.30;;;;;;;24.89;38.16;99056.78;4965362;28;20496;-94
2022/06/07 16:03:31;;;;;;;3.80;2.40;;;;;;;24.59;38.56;99035.50;4950743;28;20023;-95
2022/06/07 16:06:07;;;;;;;;;;;;;;;;;;;;;
2022/06/07 16:08:57;;;;;;;8.32;2.88;;;;;;;24.77;38.10;99068.81;4994722;28;20061;-95
2022/06/07 16:11:23;;;;;;;4.40;2.15;;;;;;;24.55;38.72;99035.47;4987054;28;20026;-93
2022/06/07 16:17:02;;;;;;;6.30;2.10;;;;;;;24.36;38.31;99024.53;5130036;23;20058;-94
2022/06/07 16:19:27;;;;;;;3.58;2.05;;;;;;;24.45;38.47;99038.03;4990580;28;20049;-94
2022/06/07 16:22:04;;;;;;;7.18;2.58;;;;;;;24.33;38.95;99036.28;4966371;28;20053;-96
2022/06/07 16:27:01;;;;;;;6.15;2.83;;;;;;;24.35;39.26;99042.22;4976811;28;20051;-93
2022/06/07 16:34:57;;;;;;;6.78;2.83;;;;;;;24.09;38.64;99038.25;4960621;28;20100;-93
2022/06/07 16:37:23;;;;;;;7.18;2.17;;;;;;;24.20;38.81;99052.97;4957249;28;20029;-94
2022/06/07 16:39:48;;;;;;;12.77;2.30;;;;;;;24.12;38.99;99028.47;4956875;28;20027;-95
2022/06/07 16:42:16;;;;;;;3.67;2.22;;;;;;;24.08;39.20;99022.91;4956925;28;20035;-94
2022/06/07 16:44:42;;;;;;;4.13;1.90;;;;;;;24.15;38.85;99031.25;4956621;28;20494;-94
2022/06/07 16:47:09;;;;;;;6.15;2.55;;;;;;;24.17;38.86;99034.44;4956021;28;20122;-93
2022/06/07 16:49:34;;;;;;;6.57;2.28;;;;;;;24.10;39.14;99047.31;4959077;28;20599;-95
2022/06/07 16:52:03;;;;;;;4.13;2.40;;;;;;;24.01;39.21;99022.81;4940966;28;20125;-95
2022/06/07 16:54:32;;;;;;;4.35;1.95;;;;;;;23.84;39.33;99024.06;4958482;28;20034;-92
2022/06/07 16:57:01;;;;;;;3.80;2.17;;;;;;;23.79;39.14;99033.41;4943163;28;20383;-93
2022/06/07 16:59:27;;;;;;;3.65;1.98;;;;;;;23.78;38.88;99026.34;4958516;28;20023;-92
2022/06/07 17:01:52;;;;;;;4.95;2.40;;;;;;;23.78;39.72;99039.28;4957977;28;20138;-95
2022/06/07 17:04:18;;;;;;;3.95;2.50;;;;;;;23.66;39.71;99036.66;4941228;28;20023;-94
2022/06/07 17:06:45;;;;;;;7.80;2.10;;;;;;;23.77;39.46;99057.72;4959776;28;20022;-95
2022/06/07 17:09:16;;;;;;;3.72;2.40;;;;;;;23.52;39.90;99032.50;4960916;28;20094;-94
2022/06/07 17:11:42;;;;;;;5.25;1.92;;;;;;;23.40;39.55;99033.44;4960248;28;20388;-96
2022/06/07 17:14:10;;;;;;;6.28;2.03;;;;;;;23.45;39.60;99043.38;4944107;28;20026;-95
2022/06/07 17:16:39;;;;;;;8.23;5.25;;;;;;;23.27;39.37;99025.72;4943397;28;20019;-94
2022/06/07 17:19:11;;;;;;;7.25;2.35;;;;;;;23.18;39.67;99034.19;4960625;28;20026;-94
2022/06/07 17:21:37;;;;;;;6.25;2.53;;;;;;;23.22;39.90;99039.75;4961127;28;20381;-95
2022/06/07 17:24:23;;;;;;;7.18;2.75;;;;;;;23.04;41.74;99026.44;4958197;28;20038;-94
2022/06/07 17:26:48;;;;;;;12.85;2.88;;;;;;;23.03;42.38;99038.56;4959312;28;20051;-95
2022/06/07 17:29:14;;;;;;;13.23;4.05;;;;;;;22.98;44.32;99052.56;4958534;28;20141;-96
2022/06/07 17:31:51;;;;;;;10.05;3.50;;;;;;;22.74;44.97;99034.38;4943203;28;20042;-95
2022/06/07 17:34:20;;;;;;;4.50;2.78;;;;;;;22.68;44.26;99044.88;4959956;28;20022;-94
2022/06/07 17:36:54;;;;;;;8.73;3.20;;;;;;;22.57;45.91;99038.31;4959067;28;20027;-96
2022/06/07 17:39:25;;;;;;;8.85;3.20;;;;;;;22.51;44.78;99043.28;4960943;28;20019;-96
2022/06/07 17:41:51;;;;;;;7.67;3.77;;;;;;;22.43;44.20;99027.00;4943846;28;20035;-95
2022/06/07 17:44:28;;;;;;;6.85;3.28;;;;;;;22.62;43.84;99048.22;4943085;28;20366;-96
2022/06/07 17:46:54;;;;;;;10.93;3.60;;;;;;;22.30;44.16;99023.59;4959083;28;20035;-93
2022/06/07 17:49:19;;;;;;;12.35;5.50;;;;;;;22.20;44.53;99020.22;4956631;28;20505;-94
2022/06/07 17:51:45;;;;;;;11.90;4.60;;;;;;;22.14;44.79;99038.06;4957080;28;20058;-94
2022/06/07 17:54:14;;;;;;;19.17;5.25;;;;;;;22.16;45.57;99038.53;4957996;28;20062;-93
2022/06/07 17:56:39;;;;;;;8.18;3.15;;;;;;;22.16;49.48;99054.16;4941192;28;20019;-95
2022/06/07 17:59:05;;;;;;;7.20;2.85;;;;;;;22.04;49.47;99033.13;4957110;28;20514;-95
2022/06/07 18:01:33;;;;;;;8.45;3.20;;;;;;;21.96;50.33;99042.31;4956868;28;20405;-94
2022/06/07 18:03:58;;;;;;;6.28;2.53;;;;;;;22.00;50.06;99048.69;4957155;28;20423;-95
2022/06/07 18:06:24;;;;;;;10.32;3.63;;;;;;;21.84;50.31;99050.63;4940814;28;20034;-95
2022/06/07 18:08:50;;;;;;;10.18;4.30;;;;;;;21.69;50.70;99043.97;4956794;28;20038;-95
2022/06/07 18:11:24;;;;;;;11.75;4.13;;;;;;;21.47;51.50;99045.31;4957054;28;20122;-95
2022/06/07 18:13:55;;;;;;;10.77;4.78;;;;;;;21.64;51.63;99071.59;4960018;28;20049;-95
2022/06/07 18:16:20;;;;;;;6.90;3.00;;;;;;;21.44;51.50;99071.47;4974085;28;20031;-94
2022/06/07 18:18:49;;;;;;;3.15;2.80;;;;;;;21.17;50.87;99032.75;4960697;28;20100;-93
2022/06/07 18:21:15;;;;;;;10.90;2.80;;;;;;;21.16;51.08;99046.75;4944416;28;20035;-94
2022/06/07 18:23:43;;;;;;;6.75;3.45;;;;;;;21.07;51.65;99057.06;4959905;28;20038;-94
2022/06/07 18:26:13;;;;;;;5.82;3.00;;;;;;;21.07;51.94;99062.56;4943851;28;20051;-93
2022/06/07 18:28:43;;;;;;;6.90;2.80;;;;;;;20.94;52.08;99059.84;4961882;28;20035;-95
2022/06/07 18:31:36;;;;;;;7.90;2.58;;;;;;;21.09;51.60;99055.56;4945021;28;20027;-95
2022/06/07 18:34:06;;;;;;;4.13;2.67;;;;;;;20.95;51.95;99061.41;4958061;28;20526;-95
2022/06/07 18:36:52;;;;;;;11.95;3.08;;;;;;;20.65;52.10;99041.75;4961714;28;20027;-94
2022/06/07 18:39:18;;;;;;;10.13;2.85;;;;;;;20.73;52.23;99057.25;4964940;28;20472;-94
2022/06/07 18:41:46;;;;;;;5.90;3.38;;;;;;;20.64;52.86;99051.09;4960144;28;20043;-94
2022/06/07 18:44:12;;;;;;;7.65;4.35;;;;;;;20.65;53.18;99062.81;4946580;28;20027;-93
2022/06/07 18:46:42;;;;;;;9.85;4.32;;;;;;;20.67;52.99;99058.63;4961335;28;20149;-95
2022/06/07 18:49:11;;;;;;;8.82;4.50;;;;;;;20.78;52.58;99064.44;4944536;28;20089;-95
2022/06/07 18:51:38;;;;;;;8.38;4.32;;;;;;;20.87;52.73;99075.25;4961296;28;20049;-95
2022/06/07 18:54:03;;;;;;;7.25;4.30;;;;;;;20.62;53.03;99053.38;4960145;28;20042;-93
2022/06/07 18:56:29;;;;;;;7.85;3.35;;;;;;;20.59;52.76;99067.75;4944751;28;20026;-94
2022/06/07 18:58:57;;;;;;;5.50;2.83;;;;;;;20.50;52.50;99058.81;4959428;28;20105;-95
2022/06/07 19:01:28;;;;;;;6.88;2.97;;;;;;;20.31;53.03;99057.44;4944315;28;20113;-94
2022/06/07 19:03:53;;;;;;;5.47;3.00;;;;;;;20.30;52.77;99064.06;4944293;28;20058;-95
2022/06/07 19:06:20;;;;;;;7.80;3.38;;;;;;;20.18;52.70;99064.06;4959051;28;20093;-94
2022/06/07 19:08:46;;;;;;;8.20;2.90;;;;;;;20.04;53.38;99061.63;4943558;28;20443;-95
2022/06/07 19:11:14;;;;;;;9.32;3.55;;;;;;;20.01;53.77;99062.31;4960464;28;20085;-94
2022/06/07 19:13:43;;;;;;;9.27;3.70;;;;;;;20.01;53.24;99072.47;4960256;28;20031;-93
2022/06/07 19:16:09;;;;;;;9.18;3.90;;;;;;;19.87;53.59;99051.69;4961447;28;20037;-94
2022/06/07 19:18:37;;;;;;;6.45;2.95;;;;;;;19.77;54.77;99066.56;4959453;28;20129;-94
2022/06/07 19:21:03;;;;;;;6.82;3.63;;;;;;;19.70;54.13;99065.53;4960164;28;20031;-94
2022/06/07 19:23:34;;;;;;;3.78;2.95;;;;;;;19.61;54.11;99060.16;4945040;28;20045;-95
2022/06/07 19:26:13;;;;;;;7.65;3.00;;;;;;;19.59;54.62;99079.59;4961232;28;20058;-95
2022/06/07 19:28:46;;;;;;;9.00;3.58;;;;;;;19.35;54.67;99049.47;4964254;28;20031;-96
2022/06/07 19:31:14;;;;;;;15.05;4.45;;;;;;;19.41;55.06;99063.72;4961844;28;20090;-96
2022/06/07 19:33:46;;;;;;;12.38;3.50;;;;;;;19.25;55.34;99058.06;4944588;28;20027;-96
2022/06/07 19:36:12;;;;;;;9.65;3.17;;;;;;;19.27;55.98;99078.41;4961439;28;20033;-95
2022/06/07 19:38:37;;;;;;;7.45;3.10;;;;;;;19.16;55.74;99053.47;4943983;28;20030;-94
2022/06/07 19:41:03;;;;;;;5.38;2.90;;;;;;;19.12;56.28;99057.19;4959302;28;20027;-95
2022/06/07 19:43:29;;;;;;;7.10;2.80;;;;;;;19.04;56.06;99049.88;4959575;28;20030;-96
2022/06/07 19:45:58;;;;;;;6.85;2.60;;;;;;;19.02;56.22;99042.03;4944773;28;20034;-94
2022/06/07 19:48:23;;;;;;;5.60;2.90;;;;;;;18.96;56.84;99044.13;4944214;28;20023;-95
2022/06/07 19:51:00;;;;;;;5.03;3.40;;;;;;;19.01;56.48;99050.53;4959961;28;20157;-96
2022/06/07 19:53:26;;;;;;;8.25;3.25;;;;;;;19.08;56.75;99061.72;4963615;28;20027;-96
2022/06/07 19:55:53;;;;;;;5.90;2.70;;;;;;;18.98;57.42;99062.91;4960350;28;20077;-95
2022/06/07 19:58:21;;;;;;;7.97;3.13;;;;;;;18.86;57.50;99049.97;4944918;28;20054;-95
2022/06/07 20:00:46;;;;;;;4.40;3.13;;;;;;;18.80;57.59;99034.97;4959405;28;20041;-95
2022/06/07 20:03:12;;;;;;;8.45;3.00;;;;;;;18.74;58.29;99050.69;4959525;28;20026;-95
2022/06/07 20:05:38;;;;;;;10.43;3.08;;;;;;;18.68;57.95;99049.28;4942673;28;20100;-92
2022/06/07 20:08:05;;;;;;;6.97;3.13;;;;;;;18.68;58.31;99062.13;4957979;28;20026;-92
2022/06/07 20:10:31;;;;;;;6.80;2.88;;;;;;;18.63;58.07;99057.66;4958319;28;20113;-94
2022/06/07 20:12:56;;;;;;;8.05;3.00;;;;;;;18.43;58.71;99039.31;4958346;28;20050;-93
2022/06/07 20:15:22;;;;;;;8.07;3.97;;;;;;;18.37;58.86;99038.72;4957688;28;20057;-93
2022/06/07 20:17:48;;;;;;;7.22;3.17;;;;;;;18.47;58.57;99048.44;4958078;28;20050;-92
2022/06/07 20:20:14;;;;;;;8.15;3.22;;;;;;;18.37;59.09;99041.44;4958646;28;20113;-92
2022/06/07 20:22:40;;;;;;;8.35;3.55;;;;;;;18.26;59.80;99043.75;4958075;28;20084;-94
2022/06/07 20:25:06;;;;;;;6.10;3.65;;;;;;;18.24;59.80;99047.91;4957334;28;20038;-91
2022/06/07 20:27:33;;;;;;;9.82;3.47;;;;;;;18.33;59.71;99059.56;4942577;28;20023;-91
2022/06/07 20:29:58;;;;;;;10.77;3.38;;;;;;;18.24;59.87;99061.53;4957295;28;20027;-92
2022/06/07 20:32:23;;;;;;;6.20;2.75;;;;;;;18.16;59.96;99055.00;4941653;28;20033;-92
2022/06/07 20:34:49;;;;;;;5.07;3.03;;;;;;;18.11;59.75;99047.78;4957504;28;20031;-93
2022/06/07 20:37:16;;;;;;;6.95;3.03;;;;;;;18.18;60.16;99056.28;4958040;28;20061;-91
2022/06/07 20:39:42;;;;;;;6.93;3.20;;;;;;;18.10;60.08;99059.81;4957493;28;20054;-95
2022/06/07 20:42:10;;;;;;;4.78;3.20;;;;;;;17.89;60.56;99048.84;4957392;28;20057;-94
2022/06/07 20:44:35;;;;;;;9.02;3.60;;;;;;;17.94;60.64;99045.94;4957805;28;20026;-94
2022/06/07 20:47:02;;;;;;;5.20;2.92;;;;;;;17.96;60.73;99056.50;4958142;28;20050;-96
2022/06/07 20:49:27;;;;;;;6.85;3.53;;;;;;;17.92;61.26;99061.78;4944901;28;20022;-92
2022/06/07 20:51:53;;;;;;;9.30;3.35;;;;;;;17.91;61.33;99062.16;4957479;28;20031;-92
2022/06/07 20:54:19;;;;;;;8.75;3.50;;;;;;;17.84;61.31;99048.22;4959729;28;20030;-92
2022/06/07 20:56:44;;;;;;;12.45;3.30;;;;;;;17.81;61.36;99044.19;4958260;28;20054;-93
2022/06/07 20:59:10;;;;;;;6.32;3.40;;;;;;;17.93;61.31;99063.41;4956940;28;20053;-91
2022/06/07 21:01:35;;;;;;;7.30;3.13;;;;;;;17.82;61.36;99051.22;4957336;28;20427;-92
2022/06/07 21:04:02;;;;;;;7.15;3.42;;;;;;;17.78;61.69;99044.81;4957011;28;20034;-95
2022/06/07 21:06:27;;;;;;;6.45;3.33;;;;;;;17.84;61.55;99061.81;4957067;28;20041;-91
2022/06/07 21:08:53;;;;;;;8.90;3.35;;;;;;;17.67;61.85;99052.53;4957279;28;20031;-91
2022/06/07 21:11:18;;;;;;;6.07;3.33;;;;;;;17.66;62.11;99052.84;4941256;28;20480;-93
2022/06/07 21:13:44;;;;;;;8.32;3.50;;;;;;;17.71;61.83;99060.88;4957262;28;20035;-93
2022/06/07 21:16:09;;;;;;;8.00;3.55;;;;;;;17.51;62.15;99040.56;4958613;28;20546;-94
2022/06/07 21:18:35;;;;;;;12.93;4.40;;;;;;;17.53;62.43;99044.53;4957305;28;20026;-92
2022/06/07 21:21:00;;;;;;;10.07;3.47;;;;;;;17.48;63.49;99050.16;4958387;28;20559;-93
2022/06/07 21:23:26;;;;;;;6.03;3.42;;;;;;;17.44;63.37;99041.06;4957082;28;20063;-93
2022/06/07 21:25:51;;;;;;;7.07;3.63;;;;;;;17.37;63.66;99033.38;4956835;28;20051;-93
2022/06/07 21:28:17;;;;;;;5.47;3.38;;;;;;;17.40;63.87;99036.56;4956732;28;20026;-92
2022/06/07 21:30:43;;;;;;;5.25;3.47;;;;;;;17.26;64.06;99037.53;4956652;28;20019;-94
2022/06/07 21:33:09;;;;;;;7.07;3.38;;;;;;;17.30;64.54;99051.31;4957032;28;20395;-93
2022/06/07 21:35:34;;;;;;;4.65;3.13;;;;;;;17.15;64.65;99039.78;4942129;28;20026;-94
2022/06/07 21:38:00;;;;;;;6.57;3.28;;;;;;;17.16;64.47;99046.84;4940881;28;20015;-93
2022/06/07 21:40:35;;;;;;;5.72;3.22;;;;;;;17.03;64.56;99031.47;4956805;28;20065;-94
2022/06/07 21:43:01;;;;;;;7.95;3.40;;;;;;;17.12;64.95;99048.59;4957479;28;20027;-93
2022/06/07 21:45:26;;;;;;;5.55;3.28;;;;;;;17.03;64.76;99041.53;4956769;28;20019;-93
2022/06/07 21:47:52;;;;;;;5.32;3.42;;;;;;;16.93;64.55;99018.16;4956647;28;20030;-93
2022/06/07 21:50:19;;;;;;;5.20;3.17;;;;;;;16.99;65.24;99041.38;4956838;28;20026;-92
2022/06/07 21:52:44;;;;;;;4.05;2.95;;;;;;;16.93;65.18;99032.59;4959003;28;20029;-92
2022/06/07 21:55:10;;;;;;;8.18;3.30;;;;;;;16.88;65.81;99038.16;4960275;28;20027;-93
2022/06/07 21:57:36;;;;;;;8.25;3.17;;;;;;;16.93;65.93;99050.81;4960232;28;20019;-93
2022/06/07 22:00:02;;;;;;;9.70;3.20;;;;;;;16.86;65.93;99039.63;4960135;28;20027;-92
2022/06/07 22:02:28;;;;;;;8.90;3.45;;;;;;;16.80;65.47;99032.69;4960523;28;20054;-94
2022/06/07 22:04:53;;;;;;;8.38;3.47;;;;;;;16.80;65.83;99032.69;4960134;28;20054;-93
2022/06/07 22:07:19;;;;;;;6.20;3.35;;;;;;;16.87;65.70;99043.91;4959729;28;20023;-93
2022/06/07 22:09:45;;;;;;;5.97;3.45;;;;;;;16.65;66.15;99015.72;4960544;28;20031;-93
2022/06/07 22:12:10;;;;;;;10.93;3.40;;;;;;;16.77;66.14;99036.88;4959824;28;20018;-94
2022/06/07 22:14:36;;;;;;;6.95;3.35;;;;;;;16.74;66.51;99040.19;4960215;28;20053;-93
2022/06/07 22:17:02;;;;;;;5.72;3.33;;;;;;;16.68;66.46;99028.66;4959929;28;20058;-93
2022/06/07 22:19:27;;;;;;;7.32;3.50;;;;;;;16.51;66.54;99017.78;4959908;28;20031;-94
2022/06/07 22:21:52;;;;;;;11.80;3.42;;;;;;;16.68;66.61;99041.47;4960816;28;20033;-93
2022/06/07 22:24:18;;;;;;;7.85;3.50;;;;;;;16.59;66.49;99037.94;4960211;28;20022;-93
2022/06/07 22:26:43;;;;;;;12.15;3.35;;;;;;;16.54;66.86;99028.03;4960147;28;20105;-93
2022/06/07 22:31:53;;;;;;;4.97;3.33;;;;;;;16.46;67.09;99036.97;4962835;28;20403;-93
2022/06/07 22:34:18;;;;;;;5.00;3.28;;;;;;;16.44;67.34;99044.63;4960393;28;20023;-93
2022/06/07 22:36:44;;;;;;;6.68;3.30;;;;;;;16.35;67.11;99015.50;4960254;28;20499;-93
2022/06/07 22:39:09;;;;;;;5.35;3.25;;;;;;;16.40;67.01;99017.28;4960172;28;20057;-93
2022/06/07 22:41:35;;;;;;;4.57;3.22;;;;;;;16.42;67.02;99017.75;4959931;28;20026;-93
2022/06/07 22:44:00;;;;;;;5.65;3.58;;;;;;;16.49;67.54;99020.81;4944205;28;20054;-92
2022/06/07 22:46:26;;;;;;;5.05;3.30;;;;;;;16.34;67.51;98999.50;4960042;28;20488;-93
2022/06/07 22:48:51;;;;;;;4.95;3.47;;;;;;;16.35;67.61;99009.25;4960340;28;20031;-93
2022/06/07 22:51:17;;;;;;;4.07;3.22;;;;;;;16.23;67.14;98980.00;4960771;28;20073;-92
2022/06/07 22:53:55;;;;;;;5.82;4.03;;;;;;;16.34;67.54;99010.38;4960223;28;20033;-93
2022/06/07 22:56:20;;;;;;;7.13;3.20;;;;;;;16.20;67.49;99001.53;4944356;28;20022;-93
2022/06/07 22:59:00;;;;;;;5.60;3.30;;;;;;;16.23;67.55;99014.50;4944064;28;20082;-93
2022/06/07 23:01:27;;;;;;;5.25;3.20;;;;;;;16.01;68.24;98989.03;4960569;28;20472;-92
2022/06/07 23:04:00;;;;;;;5.97;3.25;;;;;;;16.06;68.29;98999.75;4958983;28;20093;-92
2022/06/07 23:06:29;;;;;;;6.55;3.20;;;;;;;16.01;68.35;99001.81;4959633;28;20065;-91
2022/06/07 23:08:54;;;;;;;5.28;3.45;;;;;;;16.08;67.77;98994.81;4959803;28;20137;-92
2022/06/07 23:11:20;;;;;;;4.03;3.40;;;;;;;16.14;67.63;98985.41;4958657;28;20404;-94
2022/06/07 23:19:13;;;;;;;6.57;4.18;;;;;;;16.10;68.20;99000.72;4962074;28;20081;-92
2022/06/07 23:21:39;;;;;;;5.57;3.88;;;;;;;16.03;68.48;98986.00;4958848;28;20130;-94
2022/06/07 23:24:05;;;;;;;5.70;3.75;;;;;;;16.01;68.40;98982.78;4942638;28;20048;-93
2022/06/07 23:26:31;;;;;;;6.20;3.60;;;;;;;16.12;67.86;99003.94;4942560;28;20055;-94
2022/06/07 23:28:56;;;;;;;5.38;3.63;;;;;;;16.09;68.21;99001.03;4943373;28;20022;-93
2022/06/07 23:31:22;;;;;;;5.65;3.33;;;;;;;16.05;68.42;98998.13;4958620;28;20050;-94
2022/06/07 23:33:47;;;;;;;7.30;3.42;;;;;;;16.05;68.03;98989.19;4958712;28;20102;-94
2022/06/07 23:36:13;;;;;;;5.40;3.50;;;;;;;16.03;68.01;98973.22;4958743;28;20023;-92
2022/06/07 23:38:43;;;;;;;8.32;3.92;;;;;;;16.10;68.23;98989.03;4958195;28;20085;-92
2022/06/07 23:41:08;;;;;;;4.97;3.13;;;;;;;16.02;68.01;98970.81;4960457;28;20038;-93
2022/06/07 23:43:35;;;;;;;4.72;3.20;;;;;;;16.12;67.38;98975.94;4958631;28;20026;-92
2022/06/07 23:46:00;;;;;;;6.80;3.50;;;;;;;15.83;67.74;98941.97;4958776;28;20039;-93
2022/06/07 23:48:26;;;;;;;6.47;3.13;;;;;;;15.93;67.68;98965.34;4958268;28;20042;-94
2022/06/07 23:50:51;;;;;;;7.50;3.40;;;;;;;15.84;67.95;98951.75;4958332;28;20027;-92
2022/06/07 23:53:19;;;;;;;5.28;3.38;;;;;;;15.75;68.36;98950.91;4958151;28;20026;-92
2022/06/07 23:55:46;;;;;;;8.63;2.97;;;;;;;15.82;68.49;98958.59;4958174;28;20105;-92
2022/06/07 23:58:14;;;;;;;6.10;3.53;;;;;;;15.70;68.76;98965.38;4958077;28;20065;-91
